Laredo, TX (78042)

8:21 AM CDT on July 26, 2014 (GMT -0500)
Del Mar C (KTXLARED6) Elev 489 ft | 27.56 °N, 99.48 °W | Change Station
Active Advisory: Special Statement

Current weather conditions updated 5 seconds ago

Clear
Clear
81.3 °F
Feels Like 87 °F
N
6.5
Wind Variable Wind from ESE
Gusts 7.4 mph

Today is forecast to be nearly the same temperature as yesterday.

Today
High -- | Low -- °F
--% Chance of Precip.
Yesterday
High -- | Low -- °F
Precip. -- in
6:58 AM 8:30 PM
Waning Crescent, 0% visible
Pressure 29.97 in
Visibility 10.0 miles
Clouds Clear
Heat Index 87 °F
Dew Point 74 °F
Humidity 78%
Rainfall 0.00 in
Snow Depth Not available.
UV 1 out of 12
Pollen 7.20 out of 12
Ozone Good
PM2.5 Moderate
Flu Activity Not available.
METAR KLRD 261256Z 14011KT 10SM CLR 26/22 A3000 RMK AO2 T02610222 SLP148

More Conditions Fewer Conditions

Pressure 29.97 in
Visibility 10.0 miles
Clouds Clear
Heat Index 87 °F
Dew Point 74 °F
Humidity 78%
Rainfall 0.00 in
Snow Depth Not available.
UV 1 out of 12
Pollen 7.20 out of 12
Ozone Good
PM2.5 Moderate
Flu Activity Not available.
METAR KLRD 261256Z 14011KT 10SM CLR 26/22 A3000 RMK AO2 T02610222 SLP148

More Conditions Fewer Conditions

10-Day Weather Forecast

Almanac

Astronomy

Jul. 26, 2014 Rise Set
Actual Time 6:58 AM CDT 8:30 PM CDT
Civil Twilight 6:32 AM CDT 8:56 PM CDT
Nautical Twilight 6:02 AM CDT 9:26 PM CDT
Astronomical Twilight 5:30 AM CDT 9:58 PM CDT
Moon 6:46 AM CDT 8:14 PM CDT
Length of Visible Light 14h 23m
Length of Day
13h 32m
Tomorrow will be 1m 6s shorter.
Waning Crescent, 0% of the Moon is Illuminated
Today
Waning Crescent
Jul 26
New
Aug 3
First Quarter
Aug 10
Full
Aug 17
Last Quarter

Today's Extremes

State Highs State Lows

Community

WunderPhotos

Upload Photos

1,737,565 photos uploaded!

Nearby

Air Quality

  Air Quality AQ Index Pollutant
Yesterday Moderate
PM2.5
Yesterday Good
OZONE
Current Moderate
PM2.5
Current Good
OZONE
Saturday Good
PM10
Saturday Good
OZONE
Sunday Good
PM10
Sunday Good
OZONE
Monday Good
PM10
Monday Good
OZONE
Tuesday Good
PM10
Tuesday Good
OZONE

Snow Depth

Station Depth Elevation
No new snow has been reported.

Earthquake Activity

City Distance Mag. Time & Date
No recent earthquake activity has been reported nearby.
Minimum magnitude displayed is 2.5.

Coastal Water Temperatures

Place Temperature
No Stations Reporting

Nearby Weather Stations

Station Location Temp. Heat Index Dew Point Humidity Wind Precip. Elev Updated Type
Del Mar C, Laredo, TX 81.3 °F 87 °F 74 °F 78% ESE  at  6.5 mph 0.00 in / hr 489 ft 8:21 AM CDT Rapid Fire
Werner Ent. Laredo, Laredo, TX 78.2 °F 81 °F 72 °F 82% ENE  at  4.0 mph 0.00 in / hr 694 ft 8:10 AM CDT Normal
MesoWest CLAGNS , Encinal, TX 77 °F 75 °F - - North  at  - 0.00 in / hr 628 ft 5:30 AM CDT MADIS

Show More Stations Show Fewer Stations